createdAt,value
2018-10-18T00:02:06.748Z,85.87
2018-10-18T00:07:09.074Z,85.60
2018-10-18T00:12:11.475Z,86.73
2018-10-18T00:17:19.560Z,86.48
2018-10-18T00:22:21.924Z,86.13
2018-10-18T00:27:24.226Z,87.10
2018-10-18T00:32:26.516Z,86.81
2018-10-18T00:37:29.108Z,87.33
2018-10-18T00:42:31.439Z,87.65
2018-10-18T00:47:33.815Z,87.17
2018-10-18T00:52:36.136Z,87.66
2018-10-18T00:57:39.070Z,86.60
2018-10-18T01:02:41.397Z,86.48
2018-10-18T01:07:43.759Z,86.61
2018-10-18T01:12:46.177Z,86.94
2018-10-18T01:17:48.443Z,88.54
2018-10-18T01:22:50.813Z,88.42
2018-10-18T01:27:53.163Z,86.36
2018-10-18T01:32:55.456Z,86.56
2018-10-18T01:37:57.956Z,86.80
2018-10-18T01:43:00.380Z,87.59
2018-10-18T01:48:02.737Z,87.00
2018-10-18T01:53:05.531Z,86.70
2018-10-18T01:58:07.934Z,87.54
2018-10-18T02:03:10.219Z,87.86
2018-10-18T02:08:12.691Z,88.52
2018-10-18T02:13:14.969Z,88.58
2018-10-18T02:18:17.372Z,88.30
2018-10-18T02:23:19.757Z,88.23
2018-10-18T02:28:22.099Z,89.75
2018-10-18T02:33:24.388Z,89.27
2018-10-18T02:38:26.981Z,89.00
2018-10-18T02:43:29.282Z,88.85
2018-10-18T02:48:31.596Z,88.83
2018-10-18T02:53:34.094Z,89.67
2018-10-18T02:58:36.481Z,88.40
2018-10-18T03:03:38.803Z,88.79
2018-10-18T03:08:41.188Z,88.26
2018-10-18T03:13:43.500Z,88.65
2018-10-18T03:18:45.841Z,88.90
2018-10-18T03:23:48.233Z,89.42
2018-10-18T03:28:50.662Z,90.02
2018-10-18T03:33:52.927Z,90.11
2018-10-18T03:38:55.501Z,89.56
2018-10-18T03:43:57.873Z,89.32
2018-10-18T03:49:01.869Z,89.54
2018-10-18T03:54:06.481Z,89.89
2018-10-18T03:59:10.625Z,90.01
2018-10-18T04:04:14.596Z,90.14
2018-10-18T04:09:18.677Z,90.58
2018-10-18T04:14:22.652Z,89.87
2018-10-18T04:19:26.648Z,90.97
2018-10-18T04:24:30.736Z,91.06
2018-10-18T04:29:34.931Z,91.01
2018-10-18T04:34:39.395Z,91.38
2018-10-18T04:39:43.521Z,91.86
2018-10-18T04:44:47.509Z,92.34
2018-10-18T04:49:51.562Z,92.36
2018-10-18T04:54:55.564Z,92.12
2018-10-18T05:00:00.028Z,91.60
2018-10-18T05:05:15.278Z,91.16
2018-10-18T05:10:19.289Z,91.27
2018-10-18T05:15:23.334Z,91.32
2018-10-18T05:20:27.409Z,90.59
2018-10-18T05:25:32.281Z,90.49
2018-10-18T05:30:36.259Z,90.13
2018-10-18T05:35:40.229Z,91.08
2018-10-18T05:40:44.403Z,90.92
2018-10-18T05:45:48.373Z,90.24
2018-10-18T05:50:52.340Z,90.35
2018-10-18T05:55:56.297Z,90.21
2018-10-18T06:01:00.385Z,90.33
2018-10-18T06:06:04.488Z,90.25
2018-10-18T06:11:22.921Z,89.67
2018-10-18T06:16:28.005Z,89.39
2018-10-18T06:21:31.958Z,88.89
2018-10-18T06:26:36.612Z,89.30
2018-10-18T06:31:40.877Z,89.24
2018-10-18T06:36:44.866Z,89.26
2018-10-18T06:41:48.857Z,89.54
2018-10-18T06:46:52.953Z,89.55
2018-10-18T06:51:56.897Z,89.26
2018-10-18T06:57:00.873Z,89.53
2018-10-18T07:02:05.010Z,88.94
2018-10-18T07:07:09.006Z,89.22
2018-10-18T07:12:13.155Z,88.92
2018-10-18T07:17:17.069Z,89.18
2018-10-18T07:22:21.198Z,88.82
2018-10-18T07:27:25.151Z,89.45
2018-10-18T07:32:29.133Z,89.66
2018-10-18T07:37:33.095Z,90.42
2018-10-18T07:42:37.070Z,89.95
2018-10-18T07:47:41.310Z,90.20
2018-10-18T07:52:45.259Z,89.74
2018-10-18T07:57:49.231Z,89.17
2018-10-18T08:02:53.188Z,89.66
2018-10-18T08:07:57.844Z,88.34
2018-10-18T08:13:01.865Z,88.56
2018-10-18T08:18:06.121Z,87.98
2018-10-18T08:23:10.249Z,88.10
2018-10-18T08:28:14.190Z,88.57
2018-10-18T08:33:18.183Z,88.09
2018-10-18T08:38:22.975Z,87.66
2018-10-18T08:43:26.956Z,86.94
2018-10-18T08:48:31.788Z,85.86
2018-10-18T08:53:35.777Z,86.08
2018-10-18T08:58:39.763Z,84.86
2018-10-18T09:03:43.755Z,84.89
2018-10-18T09:08:47.729Z,84.37
2018-10-18T09:13:51.724Z,84.12
2018-10-18T09:18:55.721Z,84.43
2018-10-18T09:23:59.748Z,84.22
2018-10-18T09:29:03.809Z,84.12
2018-10-18T09:34:07.781Z,83.50
2018-10-18T09:39:11.771Z,82.78
2018-10-18T09:44:15.962Z,82.49
2018-10-18T09:49:19.858Z,82.18
2018-10-18T09:54:23.816Z,81.99
2018-10-18T09:59:28.235Z,81.32
2018-10-18T10:04:32.205Z,80.74
2018-10-18T10:09:36.395Z,79.26
2018-10-18T10:14:40.568Z,78.89
2018-10-18T10:19:44.828Z,78.34
2018-10-18T10:24:48.908Z,78.38
2018-10-18T10:29:52.940Z,77.02
2018-10-18T10:34:57.102Z,78.30
2018-10-18T10:40:01.166Z,77.02
2018-10-18T10:45:06.142Z,77.37
2018-10-18T10:50:10.654Z,76.52
2018-10-18T10:55:14.721Z,75.65
2018-10-18T11:01:13.811Z,75.77
2018-10-18T11:06:17.996Z,74.95
2018-10-18T11:11:22.503Z,74.43
2018-10-18T11:16:26.492Z,74.33
2018-10-18T11:21:30.514Z,73.67
2018-10-18T11:26:34.572Z,74.44
2018-10-18T11:31:38.542Z,75.69
2018-10-18T11:36:42.510Z,74.68
2018-10-18T11:41:46.490Z,75.10
2018-10-18T11:46:50.495Z,75.98
2018-10-18T11:51:54.563Z,76.33
2018-10-18T11:56:58.476Z,77.21
2018-10-18T12:02:02.478Z,76.66
2018-10-18T12:07:06.459Z,76.91
2018-10-18T12:12:10.437Z,76.70
2018-10-18T12:17:14.522Z,78.16
2018-10-18T12:22:18.467Z,77.76
2018-10-18T12:27:22.456Z,77.76
2018-10-18T12:32:27.025Z,78.64
2018-10-18T12:37:30.994Z,77.89
2018-10-18T12:42:36.023Z,78.59
2018-10-18T12:47:40.102Z,78.71
2018-10-18T12:52:44.085Z,78.42
2018-10-18T12:57:48.123Z,78.51
2018-10-18T13:02:52.099Z,79.22
2018-10-18T13:07:56.108Z,78.79
2018-10-18T13:13:00.178Z,77.97
2018-10-18T13:18:04.381Z,77.46
2018-10-18T13:23:08.699Z,77.61
2018-10-18T13:28:12.675Z,76.16
2018-10-18T13:33:16.652Z,76.37
2018-10-18T13:38:20.625Z,76.42
2018-10-18T13:43:24.634Z,76.60
2018-10-18T13:48:28.597Z,76.71
2018-10-18T13:53:36.545Z,76.47
2018-10-18T13:58:41.120Z,77.74
2018-10-18T14:03:45.090Z,77.71
2018-10-18T14:08:49.067Z,76.42
2018-10-18T14:13:53.152Z,77.77
2018-10-18T14:18:57.105Z,77.26
2018-10-18T14:24:01.371Z,76.39
2018-10-18T14:29:05.433Z,77.65
2018-10-18T14:34:09.957Z,77.42
2018-10-18T14:39:14.967Z,77.93
2018-10-18T14:44:19.272Z,77.81
2018-10-18T14:49:24.308Z,77.57
2018-10-18T14:54:28.307Z,78.13
2018-10-18T14:59:32.340Z,78.11
2018-10-18T15:04:36.827Z,78.67
2018-10-18T15:09:40.849Z,79.93
2018-10-18T15:14:44.965Z,79.30
2018-10-18T15:19:49.254Z,79.56
2018-10-18T15:24:53.305Z,79.65
2018-10-18T15:29:57.277Z,79.58
2018-10-18T15:35:01.324Z,80.19
2018-10-18T15:40:05.840Z,81.10
2018-10-18T15:45:10.525Z,81.05
2018-10-18T15:50:14.589Z,81.15
2018-10-18T15:55:18.587Z,81.43
2018-10-18T16:00:22.736Z,81.08
2018-10-18T16:05:26.877Z,81.05
2018-10-18T16:10:31.066Z,81.90
2018-10-18T16:15:35.274Z,81.57
2018-10-18T16:20:39.836Z,81.80
2018-10-18T16:25:44.092Z,82.24
2018-10-18T16:30:48.378Z,82.41
2018-10-18T16:35:52.572Z,82.02
2018-10-18T16:40:56.602Z,81.78
2018-10-18T16:46:00.676Z,82.07
2018-10-18T16:51:04.956Z,82.25
2018-10-18T16:56:08.990Z,81.92
2018-10-18T17:01:12.996Z,82.21
2018-10-18T17:06:16.986Z,82.65
2018-10-18T17:11:21.082Z,82.65
2018-10-18T17:16:25.179Z,81.99
2018-10-18T17:21:29.307Z,82.61
2018-10-18T17:26:33.529Z,82.30
2018-10-18T17:31:38.188Z,82.24
2018-10-18T17:36:42.226Z,82.42
2018-10-18T17:41:47.484Z,82.42
2018-10-18T17:46:51.900Z,82.16
2018-10-18T17:51:55.993Z,82.64
2018-10-18T17:57:00.908Z,82.47
2018-10-18T18:02:05.105Z,82.63
2018-10-18T18:07:09.771Z,82.06
2018-10-18T18:12:13.800Z,82.32
2018-10-18T18:17:17.789Z,82.25
2018-10-18T18:22:21.871Z,82.59
2018-10-18T18:27:25.954Z,82.17
2018-10-18T18:32:29.991Z,82.21
2018-10-18T18:37:34.108Z,81.70
2018-10-18T18:42:38.662Z,82.38
2018-10-18T18:47:42.789Z,82.75
2018-10-18T18:52:46.824Z,83.13
2018-10-18T18:57:50.828Z,82.15
2018-10-18T19:02:54.856Z,82.35
2018-10-18T19:07:58.837Z,82.45
2018-10-18T19:13:02.962Z,82.48
2018-10-18T19:18:07.068Z,83.00
2018-10-18T19:23:11.304Z,82.51
2018-10-18T19:28:15.659Z,83.15
2018-10-18T19:33:19.774Z,82.90
2018-10-18T19:38:23.786Z,82.35
2018-10-18T19:43:27.817Z,82.80
2018-10-18T19:48:32.083Z,82.76
2018-10-18T19:53:36.061Z,82.67
2018-10-18T19:58:40.150Z,83.34
2018-10-18T20:03:44.340Z,83.48
2018-10-18T20:08:48.666Z,83.38
2018-10-18T20:13:52.707Z,83.32
2018-10-18T20:18:56.669Z,83.25
2018-10-18T20:24:00.765Z,83.29
2018-10-18T20:29:04.881Z,83.00
2018-10-18T20:34:08.877Z,82.65
2018-10-18T20:39:12.949Z,83.43
2018-10-18T20:44:16.872Z,83.04
2018-10-18T20:49:20.849Z,83.15
2018-10-18T20:54:24.910Z,83.46
2018-10-18T20:59:29.927Z,83.36
2018-10-18T21:04:33.974Z,83.61
2018-10-18T21:09:37.951Z,83.53
2018-10-18T21:14:41.935Z,83.94
2018-10-18T21:19:45.972Z,83.62
2018-10-18T21:24:49.977Z,83.61
2018-10-18T21:29:53.986Z,83.42
2018-10-18T21:34:58.088Z,83.70
2018-10-18T21:40:02.160Z,83.29
2018-10-18T21:45:06.304Z,83.82
2018-10-18T21:50:10.255Z,83.80
2018-10-18T21:55:14.235Z,83.96
2018-10-18T22:00:18.417Z,84.28
2018-10-18T22:05:22.385Z,83.99
2018-10-18T22:10:26.457Z,84.30
2018-10-18T22:15:30.469Z,84.58
2018-10-18T22:20:34.463Z,84.79
2018-10-18T22:25:38.520Z,84.85
2018-10-18T22:30:42.529Z,85.17
2018-10-18T22:35:46.569Z,85.08
2018-10-18T22:40:50.631Z,85.28
2018-10-18T22:46:00.047Z,84.75
2018-10-18T22:51:04.114Z,85.32
2018-10-18T22:56:08.053Z,84.84
2018-10-18T23:01:12.184Z,85.19
2018-10-18T23:06:16.150Z,85.46
2018-10-18T23:11:20.107Z,85.26
2018-10-18T23:16:24.083Z,85.20
2018-10-18T23:21:28.127Z,85.92
2018-10-18T23:26:32.188Z,86.05
2018-10-18T23:31:36.166Z,85.77
2018-10-18T23:36:40.151Z,85.72
2018-10-18T23:41:44.166Z,85.74
2018-10-18T23:46:48.265Z,85.72
2018-10-18T23:51:52.228Z,85.60
2018-10-18T23:56:56.255Z,85.86
